createdAt,value
2018-05-21T00:00:30.045Z,102435.95
2018-05-21T00:03:34.132Z,102434.63
2018-05-21T00:06:37.442Z,102435.14
2018-05-21T00:09:40.770Z,102434.69
2018-05-21T00:12:44.069Z,102421.52
2018-05-21T00:15:47.389Z,102424.99
2018-05-21T00:18:50.690Z,102422.73
2018-05-21T00:21:54.001Z,102416.83
2018-05-21T00:24:57.305Z,102414.48
2018-05-21T00:28:00.621Z,102411.77
2018-05-21T00:31:03.926Z,102412.66
2018-05-21T00:34:08.010Z,102412.54
2018-05-21T00:37:11.318Z,102412.27
2018-05-21T00:40:14.649Z,102414.41
2018-05-21T00:43:17.958Z,102412.08
2018-05-21T00:46:21.277Z,102412.39
2018-05-21T00:49:24.573Z,102412.50
2018-05-21T00:52:27.898Z,102400.39
2018-05-21T00:55:37.801Z,102403.08
2018-05-21T00:58:41.121Z,102400.98
2018-05-21T01:01:44.433Z,102399.08
2018-05-21T01:04:47.741Z,102397.52
2018-05-21T01:07:51.053Z,102397.44
2018-05-21T01:10:55.137Z,102405.45
2018-05-21T01:13:58.434Z,102398.27
2018-05-21T01:17:01.763Z,102404.22
2018-05-21T01:20:05.833Z,102398.58
2018-05-21T01:23:09.149Z,102396.80
2018-05-21T01:26:12.454Z,102403.29
2018-05-21T01:29:15.770Z,102402.66
2018-05-21T01:32:19.837Z,102397.64
2018-05-21T01:35:23.187Z,102392.50
2018-05-21T01:38:26.481Z,102385.73
2018-05-21T01:41:30.558Z,102387.64
2018-05-21T01:44:33.857Z,102386.20
2018-05-21T01:47:37.168Z,102380.72
2018-05-21T01:50:40.468Z,102376.20
2018-05-21T01:53:43.797Z,102372.94
2018-05-21T01:56:47.093Z,102376.01
2018-05-21T01:59:50.412Z,102369.94
2018-05-21T02:02:53.711Z,102371.22
2018-05-21T02:05:57.022Z,102374.73
2018-05-21T02:09:00.337Z,102377.56
2018-05-21T02:12:03.657Z,102377.37
2018-05-21T02:15:07.774Z,102381.45
2018-05-21T02:18:11.069Z,102383.44
2018-05-21T02:21:15.142Z,102378.69
2018-05-21T02:24:18.453Z,102375.46
2018-05-21T02:27:21.767Z,102369.86
2018-05-21T02:30:25.855Z,102368.26
2018-05-21T02:33:29.155Z,102365.30
2018-05-21T02:36:32.469Z,102362.89
2018-05-21T02:39:36.542Z,102361.83
2018-05-21T02:42:39.867Z,102369.95
2018-05-21T02:45:43.169Z,102366.53
2018-05-21T02:48:46.500Z,102367.97
2018-05-21T02:51:49.806Z,102367.89
2018-05-21T02:54:53.141Z,102362.64
2018-05-21T02:57:56.445Z,102359.22
2018-05-21T03:00:59.757Z,102358.17
2018-05-21T03:04:03.077Z,102357.11
2018-05-21T03:07:06.383Z,102355.13
2018-05-21T03:10:09.704Z,102350.86
2018-05-21T03:13:12.997Z,102349.42
2018-05-21T03:16:16.305Z,102347.44
2018-05-21T03:19:19.605Z,102346.47
2018-05-21T03:22:22.921Z,102351.72
2018-05-21T03:25:26.221Z,102348.06
2018-05-21T03:28:29.553Z,102344.22
2018-05-21T03:31:32.848Z,102340.17
2018-05-21T03:34:36.156Z,102339.39
2018-05-21T03:37:39.489Z,102336.36
2018-05-21T03:40:42.793Z,102336.05
2018-05-21T03:43:46.121Z,102339.73
2018-05-21T03:46:50.190Z,102338.03
2018-05-21T03:49:53.510Z,102335.93
2018-05-21T03:52:56.822Z,102336.78
2018-05-21T03:56:00.129Z,102336.71
2018-05-21T03:59:21.137Z,102332.86
2018-05-21T04:02:43.528Z,102337.45
2018-05-21T04:05:46.843Z,102340.68
2018-05-21T04:08:50.168Z,102344.95
2018-05-21T04:11:54.316Z,102348.85
2018-05-21T04:14:57.585Z,102355.50
2018-05-21T04:18:01.708Z,102339.78
2018-05-21T04:21:05.013Z,102339.30
2018-05-21T04:24:08.351Z,102331.17
2018-05-21T04:27:11.650Z,102345.68
2018-05-21T04:30:14.961Z,102348.91
2018-05-21T04:33:18.277Z,102354.19
2018-05-21T04:36:22.377Z,102348.27
2018-05-21T04:39:25.680Z,102348.17
2018-05-21T04:42:29.762Z,102346.05
2018-05-21T04:45:33.070Z,102346.54
2018-05-21T04:48:36.388Z,102350.57
2018-05-21T04:51:39.705Z,102349.97
2018-05-21T04:54:43.768Z,102340.77
2018-05-21T04:57:47.090Z,102338.09
2018-05-21T05:00:50.391Z,102334.98
2018-05-21T05:03:54.473Z,102338.08
2018-05-21T05:06:57.786Z,102335.59
2018-05-21T05:10:01.136Z,102341.73
2018-05-21T05:13:05.210Z,102334.84
2018-05-21T05:16:09.298Z,102334.39
2018-05-21T05:19:12.610Z,102335.05
2018-05-21T05:22:15.912Z,102340.34
2018-05-21T05:25:19.233Z,102338.48
2018-05-21T05:28:23.314Z,102343.15
2018-05-21T05:31:26.617Z,102340.89
2018-05-21T05:34:29.930Z,102346.39
2018-05-21T05:37:33.998Z,102351.56
2018-05-21T05:40:37.337Z,102345.70
2018-05-21T05:43:41.410Z,102351.20
2018-05-21T05:46:44.718Z,102338.27
2018-05-21T05:49:48.045Z,102333.36
2018-05-21T05:52:52.121Z,102334.08
2018-05-21T05:55:55.459Z,102334.98
2018-05-21T05:58:59.540Z,102335.29
2018-05-21T06:02:02.849Z,102334.02
2018-05-21T06:05:06.194Z,102328.64
2018-05-21T06:08:09.493Z,102330.21
2018-05-21T06:11:12.801Z,102327.64
2018-05-21T06:14:16.106Z,102334.77
2018-05-21T06:17:19.427Z,102331.07
2018-05-21T06:20:22.729Z,102333.99
2018-05-21T06:23:26.041Z,102333.20
2018-05-21T06:26:30.122Z,102328.73
2018-05-21T06:29:33.437Z,102332.53
2018-05-21T06:32:36.738Z,102333.00
2018-05-21T06:35:40.054Z,102331.55
2018-05-21T06:38:44.150Z,102330.66
2018-05-21T06:41:47.462Z,102333.13
2018-05-21T06:44:50.800Z,102333.50
2018-05-21T06:47:54.100Z,102330.15
2018-05-21T06:50:57.408Z,102333.77
2018-05-21T06:54:00.710Z,102332.98
2018-05-21T06:57:04.025Z,102327.95
2018-05-21T07:00:07.346Z,102330.48
2018-05-21T07:03:11.422Z,102329.04
2018-05-21T07:06:14.728Z,102329.55
2018-05-21T07:09:18.025Z,102323.80
2018-05-21T07:12:21.342Z,102319.68
2018-05-21T07:15:25.405Z,102325.20
2018-05-21T07:18:28.721Z,102322.35
2018-05-21T07:21:32.026Z,102318.31
2018-05-21T07:24:35.339Z,102317.53
2018-05-21T07:27:39.417Z,102308.70
2018-05-21T07:30:42.729Z,102317.08
2018-05-21T07:33:46.037Z,102311.73
2018-05-21T07:36:49.334Z,102302.34
2018-05-21T07:39:52.645Z,102300.39
2018-05-21T07:42:56.725Z,102300.42
2018-05-21T07:46:00.026Z,102302.53
2018-05-21T07:49:03.343Z,102301.17
2018-05-21T07:52:06.658Z,102298.97
2018-05-21T07:55:09.978Z,102306.21
2018-05-21T07:58:13.304Z,102294.08
2018-05-21T08:01:16.613Z,102292.52
2018-05-21T08:04:19.917Z,102300.45
2018-05-21T08:07:23.229Z,102296.55
2018-05-21T08:10:27.326Z,102289.47
2018-05-21T08:13:30.629Z,102288.34
2018-05-21T08:16:33.954Z,102280.50
2018-05-21T08:19:37.269Z,102285.81
2018-05-21T08:22:40.583Z,102289.23
2018-05-21T08:25:43.896Z,102279.50
2018-05-21T08:28:47.223Z,102291.00
2018-05-21T08:31:50.530Z,102280.98
2018-05-21T08:34:54.614Z,102277.26
2018-05-21T08:37:57.958Z,102271.80
2018-05-21T08:41:01.262Z,102274.73
2018-05-21T08:44:04.577Z,102276.27
2018-05-21T08:47:07.891Z,102269.12
2018-05-21T08:50:11.212Z,102271.16
2018-05-21T08:53:15.288Z,102268.59
2018-05-21T08:56:18.631Z,102260.08
2018-05-21T08:59:22.710Z,102257.22
2018-05-21T09:02:26.021Z,102254.14
2018-05-21T09:05:29.327Z,102254.56
2018-05-21T09:08:32.633Z,102247.05
2018-05-21T09:11:36.710Z,102246.05
2018-05-21T09:14:40.017Z,102237.73
2018-05-21T09:17:43.336Z,102239.19
2018-05-21T09:20:47.434Z,102233.68
2018-05-21T09:23:50.733Z,102233.33
2018-05-21T09:26:54.076Z,102227.34
2018-05-21T09:29:57.378Z,102227.38
2018-05-21T09:33:00.695Z,102226.23
2018-05-21T09:36:04.002Z,102225.38
2018-05-21T09:39:07.350Z,102221.06
2018-05-21T09:42:10.657Z,102220.03
2018-05-21T09:45:13.969Z,102220.23
2018-05-21T09:48:17.280Z,102215.56
2018-05-21T09:51:20.590Z,102220.37
2018-05-21T09:54:23.913Z,102217.81
2018-05-21T09:57:27.978Z,102206.75
2018-05-21T10:00:31.298Z,102212.84
2018-05-21T10:03:34.610Z,102208.16
2018-05-21T10:06:37.952Z,102214.05
2018-05-21T10:09:41.262Z,102211.52
2018-05-21T10:12:44.572Z,102204.20
2018-05-21T10:15:47.882Z,102202.96
2018-05-21T10:18:51.190Z,102198.13
2018-05-21T10:21:54.511Z,102197.25
2018-05-21T10:24:57.813Z,102185.72
2018-05-21T10:28:01.134Z,102184.42
2018-05-21T10:31:04.450Z,102178.58
2018-05-21T10:34:07.770Z,102170.73
2018-05-21T10:37:11.159Z,102179.72
2018-05-21T10:40:15.190Z,102169.39
2018-05-21T10:43:18.488Z,102168.98
2018-05-21T10:46:21.818Z,102164.87
2018-05-21T10:49:25.117Z,102162.44
2018-05-21T10:52:28.449Z,102164.25
2018-05-21T10:55:31.757Z,102156.36
2018-05-21T10:58:35.093Z,102145.80
2018-05-21T11:01:38.430Z,102147.15
2018-05-21T11:04:41.829Z,102147.09
2018-05-21T11:07:45.110Z,102133.08
2018-05-21T11:10:48.497Z,102129.73
2018-05-21T11:13:51.782Z,102139.70
2018-05-21T11:16:55.090Z,102137.86
2018-05-21T11:19:58.409Z,102134.36
2018-05-21T11:23:01.715Z,102130.86
2018-05-21T11:26:05.033Z,102129.91
2018-05-21T11:29:08.395Z,102122.02
2018-05-21T11:32:11.697Z,102122.74
2018-05-21T11:35:15.018Z,102118.13
2018-05-21T11:38:18.376Z,102113.44
2018-05-21T11:41:21.676Z,102120.09
2018-05-21T11:44:25.002Z,102103.93
2018-05-21T11:47:28.311Z,102109.92
2018-05-21T11:50:31.645Z,102105.67
2018-05-21T11:53:34.956Z,102105.10
2018-05-21T11:56:38.272Z,102095.95
2018-05-21T11:59:41.577Z,102089.41
2018-05-21T12:02:44.921Z,102080.26
2018-05-21T12:05:48.330Z,102084.87
2018-05-21T12:08:51.638Z,102078.36
2018-05-21T12:11:54.962Z,102084.48
2018-05-21T12:14:58.266Z,102076.26
2018-05-21T12:18:01.632Z,102076.95
2018-05-21T12:21:04.936Z,102076.92
2018-05-21T12:24:08.282Z,102076.23
2018-05-21T12:27:12.359Z,102071.80
2018-05-21T12:30:15.681Z,102066.08
2018-05-21T12:33:18.994Z,102056.93
2018-05-21T12:36:23.085Z,102057.47
2018-05-21T12:39:26.405Z,102068.70
2018-05-21T12:42:30.499Z,102062.44
2018-05-21T12:45:33.812Z,102053.98
2018-05-21T12:48:37.898Z,102058.31
2018-05-21T12:51:41.213Z,102050.13
2018-05-21T12:54:44.544Z,102040.41
2018-05-21T12:57:47.861Z,102040.67
2018-05-21T13:00:51.188Z,102031.80
2018-05-21T13:03:54.503Z,102034.98
2018-05-21T13:06:57.828Z,102031.97
2018-05-21T13:10:01.142Z,102024.69
2018-05-21T13:13:04.572Z,102013.20
2018-05-21T13:16:07.891Z,102020.45
2018-05-21T13:19:11.222Z,102014.91
2018-05-21T13:22:14.530Z,102010.21
2018-05-21T13:25:17.867Z,102008.58
2018-05-21T13:28:21.179Z,102005.17
2018-05-21T13:31:24.493Z,102002.25
2018-05-21T13:34:28.572Z,102003.42
2018-05-21T13:37:31.911Z,101994.05
2018-05-21T13:40:35.218Z,101995.02
2018-05-21T13:43:38.541Z,101993.61
2018-05-21T13:46:41.847Z,101996.50
2018-05-21T13:49:45.198Z,101983.89
2018-05-21T13:52:48.514Z,101972.72
2018-05-21T13:55:51.828Z,101978.27
2018-05-21T13:58:55.189Z,101967.76
2018-05-21T14:01:58.492Z,101969.39
2018-05-21T14:05:01.816Z,101968.51
2018-05-21T14:08:05.151Z,101967.34
2018-05-21T14:11:08.465Z,101959.85
2018-05-21T14:14:11.792Z,101954.75
2018-05-21T14:17:15.187Z,101955.21
2018-05-21T14:20:18.450Z,101954.82
2018-05-21T14:23:22.516Z,101933.79
2018-05-21T14:26:25.837Z,101923.28
2018-05-21T14:29:29.249Z,101926.87
2018-05-21T14:32:32.493Z,101916.91
2018-05-21T14:35:35.798Z,101920.92
2018-05-21T14:38:39.112Z,101915.66
2018-05-21T14:41:42.434Z,101917.59
2018-05-21T14:44:45.754Z,101907.62
2018-05-21T14:47:49.833Z,101908.45
2018-05-21T14:50:53.155Z,101895.95
2018-05-21T14:53:57.237Z,101891.37
2018-05-21T14:57:00.553Z,101883.05
2018-05-21T15:00:03.885Z,101880.28
2018-05-21T15:03:07.213Z,101882.27
2018-05-21T15:06:10.538Z,101870.16
2018-05-21T15:09:13.864Z,101877.81
2018-05-21T15:12:17.941Z,101876.13
2018-05-21T15:15:21.257Z,101872.36
2018-05-21T15:18:25.344Z,101866.78
2018-05-21T15:21:28.665Z,101868.14
2018-05-21T15:24:31.985Z,101864.42
2018-05-21T15:27:36.067Z,101875.53
2018-05-21T15:30:39.393Z,101863.59
2018-05-21T15:33:43.465Z,101862.27
2018-05-21T15:36:46.799Z,101868.16
2018-05-21T15:39:50.108Z,101866.94
2018-05-21T15:42:53.425Z,101853.91
2018-05-21T15:45:56.725Z,101857.12
2018-05-21T15:49:00.814Z,101853.63
2018-05-21T15:52:04.138Z,101848.41
2018-05-21T15:55:07.452Z,101847.94
2018-05-21T15:58:10.773Z,101839.01
2018-05-21T16:01:14.079Z,101855.60
2018-05-21T16:04:18.201Z,101852.63
2018-05-21T16:07:22.278Z,101855.88
2018-05-21T16:10:25.614Z,101853.71
2018-05-21T16:13:29.682Z,101847.86
2018-05-21T16:16:32.999Z,101848.23
2018-05-21T16:19:36.318Z,101838.75
2018-05-21T16:22:40.401Z,101833.42
2018-05-21T16:25:43.744Z,101841.77
2018-05-21T16:28:47.073Z,101830.20
2018-05-21T16:31:50.402Z,101833.13
2018-05-21T16:34:53.722Z,101841.84
2018-05-21T16:37:57.801Z,101840.47
2018-05-21T16:41:01.119Z,101839.05
2018-05-21T16:44:04.425Z,101838.78
2018-05-21T16:47:08.532Z,101833.20
2018-05-21T16:50:12.609Z,101838.41
2018-05-21T16:53:15.940Z,101834.59
2018-05-21T16:56:19.245Z,101837.81
2018-05-21T16:59:23.326Z,101821.98
2018-05-21T17:02:26.643Z,101831.53
2018-05-21T17:05:29.988Z,101828.16
2018-05-21T17:08:33.301Z,101835.20
2018-05-21T17:11:36.710Z,101828.64
2018-05-21T17:14:39.942Z,101832.84
2018-05-21T17:17:44.020Z,101826.52
2018-05-21T17:20:47.337Z,101835.84
2018-05-21T17:23:50.664Z,101830.73
2018-05-21T17:26:54.754Z,101824.66
2018-05-21T17:29:58.061Z,101826.80
2018-05-21T17:33:02.140Z,101828.38
2018-05-21T17:36:05.445Z,101819.33
2018-05-21T17:39:08.766Z,101825.85
2018-05-21T17:42:12.845Z,101826.46
2018-05-21T17:45:16.154Z,101823.78
2018-05-21T17:48:19.479Z,101821.46
2018-05-21T17:51:23.558Z,101812.80
2018-05-21T17:54:26.869Z,101809.97
2018-05-21T17:57:30.173Z,101812.74
2018-05-21T18:00:33.493Z,101806.98
2018-05-21T18:03:37.605Z,101813.84
2018-05-21T18:06:40.902Z,101811.33
2018-05-21T18:09:44.196Z,101807.84
2018-05-21T18:12:48.290Z,101809.55
2018-05-21T18:15:51.598Z,101807.05
2018-05-21T18:18:55.826Z,101802.90
2018-05-21T18:21:59.933Z,101801.27
2018-05-21T18:25:04.019Z,101799.53
2018-05-21T18:28:07.333Z,101801.47
2018-05-21T18:31:10.637Z,101795.03
2018-05-21T18:34:14.719Z,101792.84
2018-05-21T18:37:18.054Z,101795.80
2018-05-21T18:40:22.135Z,101796.02
2018-05-21T18:43:25.459Z,101794.20
2018-05-21T18:46:28.765Z,101796.30
2018-05-21T18:49:32.849Z,101794.31
2018-05-21T18:52:36.157Z,101798.97
2018-05-21T18:55:39.476Z,101799.37
2018-05-21T18:58:43.566Z,101795.70
2018-05-21T19:01:46.869Z,101791.97
2018-05-21T19:04:50.186Z,101786.51
2018-05-21T19:07:54.269Z,101794.52
2018-05-21T19:10:57.584Z,101786.47
2018-05-21T19:14:01.679Z,101790.20
2018-05-21T19:17:05.009Z,101779.23
2018-05-21T19:20:09.099Z,101779.44
2018-05-21T19:23:12.401Z,101783.63
2018-05-21T19:26:15.715Z,101779.64
2018-05-21T19:29:19.790Z,101774.95
2018-05-21T19:32:23.113Z,101775.25
2018-05-21T19:35:27.189Z,101780.45
2018-05-21T19:38:30.517Z,101779.58
2018-05-21T19:41:33.833Z,101783.82
2018-05-21T19:44:37.168Z,101777.92
2018-05-21T19:47:41.237Z,101777.52
2018-05-21T19:50:45.324Z,101777.29
2018-05-21T19:53:48.656Z,101774.05
2018-05-21T19:56:52.724Z,101770.38
2018-05-21T19:59:56.099Z,101772.99
2018-05-21T20:02:59.370Z,101771.48
2018-05-21T20:06:02.678Z,101768.29
2018-05-21T20:09:06.005Z,101764.89
2018-05-21T20:12:09.320Z,101762.77
2018-05-21T20:15:12.642Z,101767.22
2018-05-21T20:18:23.314Z,101759.12
2018-05-21T20:21:27.397Z,101765.84
2018-05-21T20:24:30.738Z,101761.50
2018-05-21T20:27:34.059Z,101756.14
2018-05-21T20:30:37.377Z,101756.72
2018-05-21T20:33:40.720Z,101761.50
2018-05-21T20:36:44.817Z,101757.30
2018-05-21T20:39:48.127Z,101756.91
2018-05-21T20:42:52.209Z,101748.14
2018-05-21T20:45:55.522Z,101747.00
2018-05-21T20:48:58.849Z,101743.70
2018-05-21T20:52:02.173Z,101740.97
2018-05-21T20:55:05.495Z,101738.85
2018-05-21T20:58:08.798Z,101738.33
2018-05-21T21:01:12.134Z,101739.61
2018-05-21T21:04:15.473Z,101745.52
2018-05-21T21:07:18.785Z,101742.25
2018-05-21T21:10:22.096Z,101745.04
2018-05-21T21:13:25.419Z,101747.08
2018-05-21T21:16:28.729Z,101740.64
2018-05-21T21:19:32.046Z,101742.06
2018-05-21T21:22:35.349Z,101738.36
2018-05-21T21:25:38.687Z,101737.61
2018-05-21T21:28:42.769Z,101738.60
2018-05-21T21:31:46.085Z,101740.86
2018-05-21T21:34:49.411Z,101738.11
2018-05-21T21:37:52.722Z,101737.70
2018-05-21T21:40:56.054Z,101738.16
2018-05-21T21:43:59.369Z,101733.99
2018-05-21T21:47:02.692Z,101730.00
2018-05-21T21:50:06.901Z,101733.99
2018-05-21T21:53:10.978Z,101731.10
2018-05-21T21:56:14.298Z,101725.14
2018-05-21T21:59:17.613Z,101721.46
2018-05-21T22:02:21.698Z,101723.81
2018-05-21T22:05:25.014Z,101723.20
2018-05-21T22:08:29.109Z,101720.04
2018-05-21T22:11:32.422Z,101715.67
2018-05-21T22:14:36.511Z,101709.33
2018-05-21T22:17:39.853Z,101710.16
2018-05-21T22:20:43.930Z,101712.77
2018-05-21T22:23:47.245Z,101708.20
2018-05-21T22:26:51.321Z,101709.14
2018-05-21T22:29:54.637Z,101707.00
2018-05-21T22:32:57.945Z,101702.97
2018-05-21T22:36:01.274Z,101702.38
2018-05-21T22:39:04.589Z,101700.45
2018-05-21T22:42:07.905Z,101691.89
2018-05-21T22:45:11.245Z,101693.03
2018-05-21T22:48:15.324Z,101685.65
2018-05-21T22:51:18.640Z,101686.40
2018-05-21T22:54:35.571Z,101684.84
2018-05-21T22:57:38.876Z,101678.06
2018-05-21T23:00:42.954Z,101675.37
2018-05-21T23:03:46.274Z,101677.64
2018-05-21T23:06:50.357Z,101679.96
2018-05-21T23:09:53.683Z,101666.45
2018-05-21T23:12:57.006Z,101670.71
2018-05-21T23:16:00.327Z,101663.03
2018-05-21T23:19:04.397Z,101655.91
2018-05-21T23:22:08.483Z,101658.22
2018-05-21T23:25:11.822Z,101661.77
2018-05-21T23:28:15.890Z,101654.11
2018-05-21T23:31:19.209Z,101654.57
2018-05-21T23:34:22.524Z,101655.84
2018-05-21T23:37:26.594Z,101649.81
2018-05-21T23:40:29.914Z,101652.12
2018-05-21T23:43:33.233Z,101648.02
2018-05-21T23:46:37.319Z,101650.11
2018-05-21T23:49:40.646Z,101645.36
2018-05-21T23:52:44.712Z,101641.84
2018-05-21T23:55:48.064Z,101635.01
2018-05-21T23:58:52.124Z,101631.62
